Time;durP1;ratioP1;P1;durP2;ratioP2;P2;SDS_P1;SDS_P2;PMS_P1;PMS_P2;Temp;Humidity;BMP_temperature;BMP_pressure;BME280_temperature;BME280_humidity;BME280_pressure;Samples;Min_cycle;Max_cycle;Signal;HPM_P1;HPM_P2
2022/07/23 00:00:16;;;;;;;14.53;8.27;;;24.90;99.90;;;;;;5063639;28;20684;-80
2022/07/23 00:02:42;;;;;;;11.47;7.53;;;24.70;99.90;;;;;;5069860;28;20473;-82
2022/07/23 00:05:08;;;;;;;10.97;8.03;;;24.70;99.90;;;;;;5073741;28;20433;-83
2022/07/23 00:07:37;;;;;;;10.00;7.30;;;24.70;99.90;;;;;;5070984;28;20180;-82
2022/07/23 00:10:03;;;;;;;8.60;7.80;;;24.70;99.90;;;;;;5079753;28;20551;-84
2022/07/23 00:12:29;;;;;;;13.87;7.73;;;24.70;99.90;;;;;;5079102;28;20835;-85
2022/07/23 00:14:55;;;;;;;8.67;7.73;;;;;;;;;;5062302;28;20429;-85
2022/07/23 00:17:20;;;;;;;8.53;7.70;;;24.70;99.90;;;;;;5068720;28;20222;-84
2022/07/23 00:19:46;;;;;;;8.30;7.50;;;25.30;99.90;;;;;;5070557;28;20447;-86
2022/07/23 00:22:11;;;;;;;9.80;8.70;;;24.60;99.90;;;;;;5058375;28;20211;-87
2022/07/23 00:24:39;;;;;;;8.73;7.63;;;24.50;99.90;;;;;;5072847;28;20226;-85
2022/07/23 00:27:05;;;;;;;9.13;7.10;;;25.10;99.90;;;;;;5078849;28;20851;-84
2022/07/23 00:29:30;;;;;;;9.40;7.17;;;24.50;99.90;;;;;;5077016;28;20438;-85
2022/07/23 00:31:56;;;;;;;10.10;9.00;;;24.40;99.90;;;;;;5059460;28;20316;-85
2022/07/23 00:34:21;;;;;;;8.40;7.50;;;24.40;99.90;;;;;;5062963;28;20183;-85
2022/07/23 00:36:47;;;;;;;8.00;7.20;;;24.40;99.90;;;;;;5073467;28;20187;-86
2022/07/23 00:39:13;;;;;;;10.43;8.10;;;24.40;99.90;;;;;;5054904;28;21286;-83
2022/07/23 00:41:38;;;;;;;10.10;8.13;;;24.20;99.90;;;;;;5064109;28;20174;-84
2022/07/23 00:44:22;;;;;;;8.80;7.37;;;24.40;99.90;;;;;;5065750;22;21085;-87
2022/07/23 00:46:56;;;;;;;8.87;8.00;;;24.20;99.90;;;;;;5033453;28;20315;-87
2022/07/23 00:49:27;;;;;;;8.27;7.40;;;24.20;99.90;;;;;;5053434;28;20438;-86
2022/07/23 00:51:54;;;;;;;9.10;7.80;;;;;;;;;;5050460;28;20460;-88
2022/07/23 00:54:23;;;;;;;9.43;8.53;;;24.10;99.90;;;;;;5057425;28;20437;-90
2022/07/23 00:56:48;;;;;;;9.53;8.57;;;24.60;99.90;;;;;;5047970;28;20440;-87
2022/07/23 00:59:14;;;;;;;9.67;8.67;;;23.80;99.90;;;;;;5046038;28;20458;-88
2022/07/23 01:01:40;;;;;;;8.47;7.57;;;23.80;99.90;;;;;;5034858;28;20200;-87
2022/07/23 01:04:06;;;;;;;8.90;8.10;;;23.70;99.90;;;;;;5034988;28;20202;-89
2022/07/23 01:06:36;;;;;;;15.57;9.37;;;23.70;99.90;;;;;;5045292;28;20490;-89
2022/07/23 01:09:04;;;;;;;10.10;8.97;;;23.70;99.90;;;;;;5032648;28;20435;-88
2022/07/23 01:11:30;;;;;;;10.20;8.20;;;23.60;99.90;;;;;;5041045;28;20475;-87
2022/07/23 01:13:56;;;;;;;9.83;8.17;;;23.70;99.90;;;;;;5050168;28;21330;-87
2022/07/23 01:16:21;;;;;;;10.97;8.37;;;23.60;99.90;;;;;;5031875;28;20440;-88
2022/07/23 01:18:47;;;;;;;9.53;8.30;;;;;;;;;;5026561;28;20185;-88
2022/07/23 01:21:13;;;;;;;8.90;8.00;;;23.50;99.90;;;;;;5034349;28;20213;-87
2022/07/23 01:23:40;;;;;;;11.83;8.67;;;23.50;99.90;;;;;;5039969;28;21360;-88
2022/07/23 01:26:05;;;;;;;9.37;8.37;;;23.50;99.90;;;;;;5033519;28;21065;-88
2022/07/23 01:28:31;;;;;;;9.47;8.00;;;;;;;;;;5041565;28;20534;-89
2022/07/23 01:30:57;;;;;;;11.93;8.20;;;;;;;;;;5049653;28;20573;-88
2022/07/23 01:33:23;;;;;;;10.00;9.10;;;;;;;;;;5032224;28;20435;-87
2022/07/23 01:35:49;;;;;;;9.20;7.90;;;;;;;;;;5032178;28;20968;-87
2022/07/23 01:38:15;;;;;;;8.73;7.83;;;;;;;;;;5039966;28;20486;-90
2022/07/23 01:40:40;;;;;;;11.07;8.60;;;23.30;99.90;;;;;;5046708;28;20440;-89
2022/07/23 01:43:06;;;;;;;8.80;7.90;;;23.30;99.90;;;;;;5046473;28;20491;-87
2022/07/23 01:45:32;;;;;;;10.57;8.43;;;;;;;;;;5045308;28;20573;-86
2022/07/23 01:47:58;;;;;;;9.77;8.40;;;23.10;99.90;;;;;;5037755;28;20269;-88
2022/07/23 01:50:23;;;;;;;8.47;7.63;;;23.00;99.90;;;;;;5033009;28;20450;-87
2022/07/23 01:52:49;;;;;;;9.57;7.63;;;23.00;99.90;;;;;;5038047;28;20200;-88
2022/07/23 01:55:15;;;;;;;9.80;8.80;;;;;;;;;;5035023;28;20181;-90
2022/07/23 01:57:40;;;;;;;9.97;8.97;;;22.90;99.90;;;;;;5041311;28;20278;-90
2022/07/23 02:00:07;;;;;;;10.10;9.10;;;22.90;99.90;;;;;;5039864;28;20439;-87
2022/07/23 02:02:32;;;;;;;11.20;8.43;;;22.90;99.90;;;;;;5038500;28;20639;-86
2022/07/23 02:04:58;;;;;;;12.27;8.20;;;22.80;99.90;;;;;;5042393;28;20624;-87
2022/07/23 02:07:24;;;;;;;9.67;8.67;;;;;;;;;;5034569;28;20181;-88
2022/07/23 02:09:50;;;;;;;9.50;8.40;;;;;;;;;;5032816;28;20181;-88
2022/07/23 02:12:15;;;;;;;8.83;7.90;;;;;;;;;;5052380;28;20505;-89
2022/07/23 02:14:41;;;;;;;12.40;8.57;;;;;;;;;;5046096;28;20443;-88
2022/07/23 02:17:07;;;;;;;10.30;9.30;;;;;;;;;;5044613;28;20447;-88
2022/07/23 02:19:33;;;;;;;10.90;9.00;;;;;;;;;;5045798;28;20443;-88
2022/07/23 02:21:59;;;;;;;10.30;8.73;;;;;;;;;;5043380;28;20539;-89
2022/07/23 02:24:25;;;;;;;9.80;8.80;;;23.00;99.90;;;;;;5042012;28;20525;-87
2022/07/23 02:26:51;;;;;;;9.83;8.83;;;;;;;;;;5038002;28;20516;-89
2022/07/23 02:29:17;;;;;;;9.23;8.13;;;;;;;;;;5035024;28;20378;-87
2022/07/23 02:31:43;;;;;;;12.47;9.60;;;;;;;;;;5036264;28;21388;-88
2022/07/23 02:34:11;;;;;;;14.53;9.83;;;;;;;;;;5040476;28;20436;-87
2022/07/23 02:36:37;;;;;;;9.73;8.10;;;;;;;;;;5037673;28;20463;-88
2022/07/23 02:39:03;;;;;;;11.07;8.70;;;;;;;;;;5039369;28;20479;-89
2022/07/23 02:41:28;;;;;;;10.60;8.90;;;22.90;99.90;;;;;;5050423;28;20453;-88
2022/07/23 02:43:54;;;;;;;10.27;8.50;;;23.90;99.90;;;;;;5040185;28;21176;-89
2022/07/23 02:46:19;;;;;;;9.50;8.60;;;22.80;99.90;;;;;;5043889;28;20177;-88
2022/07/23 02:48:45;;;;;;;12.37;8.93;;;22.80;99.90;;;;;;5035554;28;20259;-89
2022/07/23 02:51:10;;;;;;;10.67;8.47;;;23.80;99.90;;;;;;5044079;28;20285;-89
2022/07/23 02:53:36;;;;;;;10.63;9.03;;;;;;;;;;5036489;28;20210;-90
2022/07/23 02:56:02;;;;;;;13.63;9.80;;;;;;;;;;5043954;28;20268;-89
2022/07/23 02:58:28;;;;;;;14.13;8.60;;;;;;;;;;5035415;28;20443;-86
2022/07/23 03:00:54;;;;;;;11.73;9.50;;;;;;;;;;5039987;28;20439;-88
2022/07/23 03:03:20;;;;;;;15.33;8.90;;;;;;;;;;5041484;28;20545;-91
2022/07/23 03:05:46;;;;;;;11.57;9.00;;;;;;;;;;5037052;28;20519;-90
2022/07/23 03:08:11;;;;;;;10.13;9.13;;;22.90;99.90;;;;;;5043840;28;20432;-88
2022/07/23 03:10:37;;;;;;;10.40;9.30;;;22.90;99.90;;;;;;5035452;28;20523;-89
2022/07/23 03:13:02;;;;;;;11.63;10.40;;;22.80;99.90;;;;;;5046712;28;20179;-89
2022/07/23 03:15:28;;;;;;;11.33;9.30;;;22.90;99.90;;;;;;5038598;28;20976;-88
2022/07/23 03:17:53;;;;;;;11.33;7.60;;;22.90;99.90;;;;;;5038502;28;20189;-89
2022/07/23 03:20:19;;;;;;;12.30;9.37;;;22.90;99.90;;;;;;5040208;28;20256;-87
2022/07/23 03:22:44;;;;;;;10.63;9.53;;;22.80;99.90;;;;;;5053266;28;20623;-89
2022/07/23 03:25:11;;;;;;;13.70;11.47;;;;;;;;;;5038290;28;20190;-89
2022/07/23 03:27:36;;;;;;;13.53;8.93;;;22.60;99.90;;;;;;5046808;28;20177;-89
2022/07/23 03:30:02;;;;;;;13.20;9.97;;;;;;;;;;5040554;28;20444;-89
2022/07/23 03:32:29;;;;;;;13.03;9.33;;;;;;;;;;5043661;28;20269;-88
2022/07/23 03:34:55;;;;;;;10.87;9.47;;;;;;;;;;5046656;28;21692;-88
2022/07/23 03:37:21;;;;;;;14.33;9.97;;;;;;;;;;5060604;28;20435;-90
2022/07/23 03:39:47;;;;;;;11.63;9.03;;;;;;;;;;5039084;28;20506;-88
2022/07/23 03:42:13;;;;;;;13.10;9.40;;;;;;;;;;5041874;28;20526;-89
2022/07/23 03:44:39;;;;;;;11.03;8.90;;;22.00;99.90;;;;;;5046956;28;21003;-88
2022/07/23 03:47:05;;;;;;;11.40;9.50;;;;;;;;;;5041851;28;20441;-87
2022/07/23 03:49:32;;;;;;;16.23;9.93;;;;;;;;;;5045523;28;20678;-86
2022/07/23 03:51:58;;;;;;;11.90;9.40;;;;;;;;;;5037735;28;20475;-88
2022/07/23 03:54:24;;;;;;;8.00;7.30;;;;;;;;;;5043026;28;20509;-89
2022/07/23 03:56:50;;;;;;;9.20;7.63;;;;;;;;;;5042191;28;21185;-89
2022/07/23 03:59:16;;;;;;;9.23;7.87;;;;;;;;;;5054043;28;20511;-88
2022/07/23 04:01:42;;;;;;;9.83;8.70;;;21.70;99.90;;;;;;5040408;28;20500;-88
2022/07/23 04:04:08;;;;;;;9.80;8.60;;;21.70;99.90;;;;;;5039854;28;20503;-88
2022/07/23 04:06:34;;;;;;;10.30;9.00;;;21.60;99.90;;;;;;5042131;28;20191;-87
2022/07/23 04:09:00;;;;;;;12.27;9.30;;;21.60;99.90;;;;;;5040356;28;20440;-89
2022/07/23 04:11:26;;;;;;;10.03;9.00;;;21.60;99.90;;;;;;5039181;28;20451;-87
2022/07/23 04:13:51;;;;;;;12.70;8.80;;;;;;;;;;5034854;28;20185;-88
2022/07/23 04:16:18;;;;;;;12.63;9.87;;;;;;;;;;5047836;28;20431;-88
2022/07/23 04:18:43;;;;;;;10.93;8.30;;;;;;;;;;5051243;28;20447;-87
2022/07/23 04:21:09;;;;;;;10.03;9.00;;;;;;;;;;5043558;28;20456;-85
2022/07/23 04:23:35;;;;;;;9.87;8.87;;;;;;;;;;5047992;28;20507;-88
2022/07/23 04:26:01;;;;;;;10.23;8.20;;;22.30;99.90;;;;;;5033932;28;22301;-88
2022/07/23 04:28:27;;;;;;;9.20;8.07;;;22.60;99.90;;;;;;5042884;28;20423;-88
2022/07/23 04:30:52;;;;;;;8.80;7.40;;;22.50;99.90;;;;;;5043138;28;20269;-88
2022/07/23 04:33:19;;;;;;;10.87;8.93;;;;;;;;;;5035416;28;20269;-87
2022/07/23 04:35:44;;;;;;;9.60;8.23;;;22.80;99.90;;;;;;5048170;28;20325;-86
2022/07/23 04:38:10;;;;;;;7.50;6.67;;;;;;;;;;5032998;28;20504;-88
2022/07/23 04:40:36;;;;;;;12.50;8.67;;;;;;;;;;5050851;28;20241;-88
2022/07/23 04:43:02;;;;;;;11.40;7.83;;;23.20;99.90;;;;;;5044676;28;20446;-86
2022/07/23 04:45:28;;;;;;;12.23;8.93;;;;;;;;;;5039146;28;20947;-87
2022/07/23 04:47:55;;;;;;;10.03;9.03;;;;;;;;;;5031917;28;20435;-88
2022/07/23 04:50:21;;;;;;;10.27;8.07;;;;;;;;;;5043806;28;20425;-90
2022/07/23 04:52:48;;;;;;;12.90;8.17;;;22.70;99.90;;;;;;5042379;28;20491;-87
2022/07/23 04:55:14;;;;;;;11.97;9.40;;;;;;;;;;5041920;28;20474;-88
2022/07/23 04:57:39;;;;;;;9.17;7.93;;;22.60;99.90;;;;;;5036444;28;20522;-87
2022/07/23 05:00:07;;;;;;;8.23;7.43;;;22.50;99.90;;;;;;5027631;28;20555;-88
2022/07/23 05:02:32;;;;;;;11.60;8.93;;;22.50;99.90;;;;;;5039905;28;20340;-88
2022/07/23 05:04:58;;;;;;;11.50;8.03;;;22.60;99.90;;;;;;5027760;28;20557;-89
2022/07/23 05:07:24;;;;;;;9.83;7.50;;;22.70;99.90;;;;;;5037258;28;20185;-88
2022/07/23 05:09:49;;;;;;;8.80;7.50;;;22.60;99.90;;;;;;5036339;28;22186;-87
2022/07/23 05:12:18;;;;;;;10.77;7.90;;;;;;;;;;5047370;28;20599;-86
2022/07/23 05:14:43;;;;;;;8.70;7.90;;;;;;;;;;5035209;28;20185;-88
2022/07/23 05:17:09;;;;;;;9.37;8.03;;;;;;;;;;5032407;28;20458;-88
2022/07/23 05:19:35;;;;;;;8.80;7.90;;;22.50;99.90;;;;;;5040045;28;20436;-88
2022/07/23 05:22:01;;;;;;;10.60;8.67;;;22.30;99.90;;;;;;5034703;28;20464;-87
2022/07/23 05:24:26;;;;;;;11.70;8.83;;;22.20;99.90;;;;;;5028505;28;20269;-87
2022/07/23 05:26:52;;;;;;;10.80;8.83;;;22.10;99.90;;;;;;5029252;28;20253;-85
2022/07/23 05:29:18;;;;;;;9.73;8.53;;;22.10;99.90;;;;;;5043491;28;20180;-86
2022/07/23 05:31:43;;;;;;;10.03;8.50;;;22.20;99.90;;;;;;5034377;28;22634;-88
2022/07/23 05:34:09;;;;;;;9.83;8.83;;;;;;;;;;5033194;28;20223;-88
2022/07/23 05:36:35;;;;;;;11.60;9.10;;;22.10;99.90;;;;;;5031645;28;20200;-86
2022/07/23 05:39:01;;;;;;;9.43;8.23;;;22.10;99.90;;;;;;5036824;28;20451;-90
2022/07/23 05:41:27;;;;;;;11.90;8.57;;;22.10;99.90;;;;;;5030562;28;20494;-87
2022/07/23 05:43:52;;;;;;;12.60;9.07;;;22.10;99.90;;;;;;5033464;28;20474;-86
2022/07/23 05:46:18;;;;;;;9.93;7.63;;;21.90;99.90;;;;;;5040285;28;20172;-87
2022/07/23 05:48:45;;;;;;;11.93;9.83;;;;;;;;;;5049117;28;20178;-87
2022/07/23 05:51:12;;;;;;;12.23;9.00;;;;;;;;;;5040221;28;20205;-87
2022/07/23 05:53:38;;;;;;;18.27;11.30;;;21.20;99.90;;;;;;5032711;28;20432;-86
2022/07/23 05:56:04;;;;;;;12.90;9.97;;;21.40;99.90;;;;;;5035248;28;20447;-87
2022/07/23 05:58:29;;;;;;;12.80;10.33;;;21.30;99.90;;;;;;5028930;28;20485;-86
2022/07/23 06:00:54;;;;;;;12.80;10.60;;;21.10;99.90;;;;;;5035044;28;20185;-87
2022/07/23 06:03:20;;;;;;;14.17;11.67;;;20.80;99.90;;;;;;5031243;28;20194;-86
2022/07/23 06:05:46;;;;;;;11.70;9.50;;;;;;;;;;5042310;28;20187;-87
2022/07/23 06:08:12;;;;;;;15.23;11.63;;;20.40;99.90;;;;;;5048428;28;20342;-87
2022/07/23 06:10:37;;;;;;;13.60;10.90;;;20.50;99.90;;;;;;5030400;28;20455;-88
2022/07/23 06:13:03;;;;;;;11.50;10.30;;;20.40;99.90;;;;;;5042670;28;20503;-87
2022/07/23 06:15:30;;;;;;;18.80;10.93;;;20.50;99.90;;;;;;5041965;28;20268;-86
2022/07/23 06:17:55;;;;;;;16.37;11.60;;;20.40;99.90;;;;;;5032996;28;20169;-87
2022/07/23 06:20:21;;;;;;;19.53;11.47;;;20.40;99.90;;;;;;5049684;28;20515;-86
2022/07/23 06:22:46;;;;;;;17.73;11.40;;;20.60;99.90;;;;;;5055539;28;20205;-86
2022/07/23 06:25:12;;;;;;;16.73;12.70;;;;;;;;;;5049880;28;20181;-85
2022/07/23 06:27:38;;;;;;;15.20;12.10;;;20.60;99.90;;;;;;5042296;28;20220;-88
2022/07/23 06:30:04;;;;;;;16.13;11.57;;;20.70;99.90;;;;;;5047013;28;20447;-87
2022/07/23 06:32:29;;;;;;;11.63;10.43;;;21.50;99.90;;;;;;5038650;28;20677;-86
2022/07/23 06:34:55;;;;;;;13.67;11.10;;;22.30;99.90;;;;;;5040070;28;20454;-89
2022/07/23 06:37:20;;;;;;;16.00;11.37;;;22.60;99.90;;;;;;5047747;28;20189;-88
2022/07/23 06:39:47;;;;;;;17.53;11.17;;;;;;;;;;5041214;28;20200;-87
2022/07/23 06:42:12;;;;;;;12.50;9.80;;;22.00;99.90;;;;;;5037411;28;20213;-87
2022/07/23 06:44:38;;;;;;;13.67;10.70;;;;;;;;;;5033868;28;21033;-86
2022/07/23 06:47:04;;;;;;;14.77;11.33;;;;;;;;;;5039785;28;20188;-87
2022/07/23 06:49:30;;;;;;;15.00;11.40;;;;;;;;;;5036151;28;20911;-86
2022/07/23 06:51:55;;;;;;;13.57;11.80;;;20.60;99.90;;;;;;5050783;28;20456;-87
2022/07/23 06:54:21;;;;;;;17.20;13.43;;;;;;;;;;5053407;28;20524;-88
2022/07/23 06:56:47;;;;;;;14.33;12.13;;;20.20;99.90;;;;;;5047613;28;20188;-88
2022/07/23 06:59:12;;;;;;;16.30;11.70;;;20.00;99.90;;;;;;5040933;28;20449;-88
2022/07/23 07:01:38;;;;;;;16.77;12.23;;;20.00;99.90;;;;;;5044390;28;20201;-86
2022/07/23 07:04:03;;;;;;;14.30;11.27;;;20.00;99.90;;;;;;5043291;28;20229;-89
2022/07/23 07:06:29;;;;;;;16.03;11.83;;;19.90;99.90;;;;;;5047371;28;20185;-88
2022/07/23 07:08:55;;;;;;;17.10;11.17;;;19.90;99.90;;;;;;5053531;28;20185;-89
2022/07/23 07:11:23;;;;;;;11.40;10.20;;;19.90;99.90;;;;;;5042599;28;20198;-87
2022/07/23 07:13:49;;;;;;;12.70;10.67;;;20.00;99.90;;;;;;5049484;28;20451;-89
2022/07/23 07:16:14;;;;;;;15.10;11.93;;;20.00;99.90;;;;;;5044484;28;20439;-89
2022/07/23 07:18:40;;;;;;;13.13;11.67;;;;;;;;;;5043937;28;20203;-90
2022/07/23 07:21:06;;;;;;;16.27;12.00;;;;;;;;;;5048158;28;20202;-88
2022/07/23 07:23:32;;;;;;;14.50;11.77;;;;;;;;;;5043842;28;21457;-87
2022/07/23 07:25:58;;;;;;;19.03;11.90;;;;;;;;;;5048392;28;20431;-88
2022/07/23 07:28:29;;;;;;;14.60;10.97;;;20.40;99.90;;;;;;5038933;28;20436;-89
2022/07/23 07:30:55;;;;;;;14.13;11.20;;;;;;;;;;5039203;28;20936;-89
2022/07/23 07:33:21;;;;;;;13.70;10.20;;;;;;;;;;5052952;28;20440;-88
2022/07/23 07:35:47;;;;;;;13.33;10.53;;;21.10;99.90;;;;;;5034269;28;20449;-88
2022/07/23 07:38:13;;;;;;;11.70;10.50;;;;;;;;;;5041282;28;20439;-90
2022/07/23 07:40:38;;;;;;;12.30;10.33;;;23.80;99.90;;;;;;5042594;28;20699;-90
2022/07/23 07:43:04;;;;;;;11.40;9.53;;;23.80;99.90;;;;;;5039811;28;20440;-88
2022/07/23 07:45:30;;;;;;;11.67;10.57;;;25.00;99.90;;;;;;5037176;28;20242;-88
2022/07/23 07:47:55;;;;;;;9.23;7.80;;;26.30;99.90;;;;;;5038181;28;20181;-91
2022/07/23 07:50:21;;;;;;;8.33;7.23;;;27.40;99.90;;;;;;5054035;28;20239;-87
2022/07/23 07:52:47;;;;;;;9.83;8.83;;;;;;;;;;5039562;28;20716;-88
2022/07/23 07:55:13;;;;;;;10.20;9.00;;;;;;;;;;5036817;28;20446;-87
2022/07/23 07:57:40;;;;;;;10.20;8.77;;;;;;;;;;5027147;28;20917;-88
2022/07/23 08:00:07;;;;;;;9.10;8.20;;;24.70;99.90;;;;;;5036453;28;20443;-87
2022/07/23 08:02:47;;;;;;;11.80;9.23;;;24.00;99.90;;;;;;5035340;28;21022;-89
2022/07/23 08:05:14;;;;;;;16.77;11.67;;;23.30;99.90;;;;;;5048738;28;20474;-87
2022/07/23 08:07:40;;;;;;;14.20;10.60;;;23.10;99.90;;;;;;5038228;28;20604;-88
2022/07/23 08:10:08;;;;;;;17.17;10.63;;;22.90;99.90;;;;;;5039249;28;20489;-87
2022/07/23 08:12:48;;;;;;;11.93;10.63;;;22.60;99.90;;;;;;5030047;28;20451;-86
2022/07/23 08:15:16;;;;;;;11.60;10.40;;;22.50;99.90;;;;;;5035586;28;20450;-88
2022/07/23 08:17:42;;;;;;;12.07;10.73;;;22.50;99.90;;;;;;5036435;28;20436;-87
2022/07/23 08:20:10;;;;;;;14.93;11.90;;;22.60;99.90;;;;;;5020528;28;20443;-89
2022/07/23 08:22:47;;;;;;;13.50;12.00;;;22.70;99.90;;;;;;5028372;28;20535;-88
2022/07/23 08:25:14;;;;;;;12.30;11.00;;;22.70;99.90;;;;;;5029361;28;20740;-85
2022/07/23 08:27:39;;;;;;;18.03;12.33;;;22.60;99.90;;;;;;5031608;28;20435;-86
2022/07/23 08:30:05;;;;;;;16.80;13.03;;;22.70;99.90;;;;;;5027667;28;20438;-86
2022/07/23 08:32:31;;;;;;;17.23;12.90;;;;;;;;;;5037983;28;20201;-87
2022/07/23 08:34:57;;;;;;;17.13;13.53;;;;;;;;;;5024415;28;20427;-87
2022/07/23 08:37:23;;;;;;;18.30;12.80;;;23.30;99.90;;;;;;5019422;28;20427;-85
2022/07/23 08:39:48;;;;;;;17.73;13.27;;;23.20;99.90;;;;;;5022928;28;20440;-88
2022/07/23 08:42:14;;;;;;;17.47;13.37;;;23.40;99.90;;;;;;5044003;28;20208;-84
2022/07/23 08:44:44;;;;;;;19.43;12.47;;;24.00;99.90;;;;;;5033118;28;20228;-85
2022/07/23 08:47:10;;;;;;;15.03;10.27;;;;;;;;;;5017602;28;20209;-87
2022/07/23 08:49:36;;;;;;;16.13;11.70;;;;;;;;;;5022119;28;20428;-87
2022/07/23 08:52:03;;;;;;;14.43;11.33;;;24.40;99.90;;;;;;5029857;28;20447;-84
2022/07/23 08:54:28;;;;;;;13.50;12.10;;;24.50;99.90;;;;;;5019428;28;21342;-88
2022/07/23 08:56:54;;;;;;;16.10;13.03;;;24.50;99.90;;;;;;5023948;28;20443;-86
2022/07/23 08:59:20;;;;;;;16.80;14.13;;;;;;;;;;5022272;28;20306;-88
2022/07/23 09:01:45;;;;;;;16.60;12.73;;;;;;;;;;5038780;28;20220;-86
2022/07/23 09:04:11;;;;;;;13.87;11.83;;;24.60;99.90;;;;;;5039731;28;20463;-87
2022/07/23 09:06:39;;;;;;;14.37;12.70;;;24.70;99.90;;;;;;5011963;28;21845;-86
2022/07/23 09:09:19;;;;;;;15.10;11.30;;;25.50;99.90;;;;;;5023778;28;20528;-88
2022/07/23 09:12:03;;;;;;;11.10;9.13;;;28.30;99.90;;;;;;5024512;28;20454;-88
2022/07/23 09:14:42;;;;;;;10.63;8.53;;;33.60;99.90;;;;;;5027292;28;20431;-87
2022/07/23 09:17:15;;;;;;;8.30;7.50;;;35.40;99.90;;;;;;5039671;28;20516;-86
2022/07/23 09:19:42;;;;;;;9.43;8.43;;;37.40;99.50;;;;;;5025206;28;20444;-88
2022/07/23 09:22:27;;;;;;;7.40;6.70;;;37.30;90.30;;;;;;5026769;28;20504;-88
2022/07/23 09:25:06;;;;;;;8.23;7.07;;;38.20;88.30;;;;;;5022960;28;20452;-86
2022/07/23 09:27:54;;;;;;;7.30;6.70;;;38.40;82.00;;;;;;5014935;28;20438;-85
2022/07/23 09:30:27;;;;;;;8.83;8.03;;;39.10;76.20;;;;;;5035496;28;20470;-85
2022/07/23 09:33:06;;;;;;;9.10;8.33;;;39.40;71.60;;;;;;5019286;28;20478;-84
2022/07/23 09:35:51;;;;;;;10.17;9.47;;;39.60;72.70;;;;;;5026117;28;20450;-86
2022/07/23 09:38:17;;;;;;;10.53;9.43;;;40.00;69.40;;;;;;5039261;28;21066;-89
2022/07/23 09:40:44;;;;;;;10.83;9.63;;;38.80;66.90;;;;;;5036213;28;21510;-87
2022/07/23 09:43:10;;;;;;;11.23;10.23;;;;;;;;;;5031611;28;20558;-88
2022/07/23 09:45:39;;;;;;;10.07;9.17;;;;;;;;;;5022039;28;20661;-87
2022/07/23 09:48:15;;;;;;;11.80;10.90;;;36.80;71.30;;;;;;5022729;28;20877;-88
2022/07/23 09:50:44;;;;;;;9.23;8.50;;;37.10;74.30;;;;;;5040838;28;20431;-89
2022/07/23 09:53:23;;;;;;;11.13;10.13;;;38.30;72.10;;;;;;5043973;28;20423;-86
2022/07/23 09:55:49;;;;;;;10.70;9.80;;;;;;;;;;5025970;28;20499;-89
2022/07/23 09:58:16;;;;;;;10.10;9.30;;;38.20;66.90;;;;;;5030743;28;21152;-87
2022/07/23 10:00:44;;;;;;;11.20;10.30;;;37.10;68.60;;;;;;5038382;28;20430;-89
2022/07/23 10:03:11;;;;;;;11.43;10.53;;;36.80;72.20;;;;;;5026207;28;20451;-86
2022/07/23 10:05:37;;;;;;;11.20;10.10;;;;;;;;;;5037678;28;20440;-87
2022/07/23 10:08:04;;;;;;;11.53;10.57;;;35.40;72.90;;;;;;5028632;28;20536;-88
2022/07/23 10:10:31;;;;;;;11.27;10.30;;;36.40;74.30;;;;;;5028637;28;21411;-88
2022/07/23 10:15:24;;;;;;;10.03;9.23;;;;;;;;;;5030318;28;20455;-87
2022/07/23 10:17:50;;;;;;;10.67;9.80;;;35.60;71.10;;;;;;5029609;28;20442;-86
2022/07/23 10:20:16;;;;;;;10.43;9.40;;;;;;;;;;5038226;28;20464;-86
2022/07/23 10:22:55;;;;;;;9.87;9.13;;;33.70;73.70;;;;;;5026923;28;20217;-89
2022/07/23 10:25:35;;;;;;;10.00;9.20;;;34.50;73.60;;;;;;5028904;28;20535;-87
2022/07/23 10:28:22;;;;;;;10.70;9.37;;;34.30;76.90;;;;;;5034304;28;20442;-87
2022/07/23 10:31:25;;;;;;;9.70;8.80;;;32.60;79.40;;;;;;5027103;28;22058;-87
2022/07/23 10:34:11;;;;;;;9.57;8.67;;;32.10;81.30;;;;;;5029412;28;20454;-88
2022/07/23 10:37:26;;;;;;;9.83;8.93;;;31.50;85.30;;;;;;5034475;28;20847;-88
2022/07/23 10:40:13;;;;;;;8.80;7.83;;;30.10;83.10;;;;;;5038435;28;20438;-87
2022/07/23 10:42:40;;;;;;;10.30;7.03;;;28.10;91.60;;;;;;5037124;28;20463;-87
2022/07/23 10:45:28;;;;;;;9.57;8.60;;;27.80;93.20;;;;;;5035638;28;20471;-87
2022/07/23 10:47:55;;;;;;;10.63;8.30;;;27.60;96.80;;;;;;5029798;28;20820;-87
2022/07/23 10:50:24;;;;;;;9.00;8.10;;;27.40;98.10;;;;;;5032133;28;21183;-87
2022/07/23 10:53:08;;;;;;;8.63;7.83;;;27.30;99.90;;;;;;5050136;28;20488;-87
2022/07/23 10:55:33;;;;;;;11.97;8.73;;;27.40;99.90;;;;;;5042871;28;20503;-87
2022/07/23 10:58:00;;;;;;;9.20;8.00;;;27.20;99.90;;;;;;5050677;28;20418;-86
2022/07/23 11:00:28;;;;;;;9.20;8.37;;;27.20;99.90;;;;;;5042821;28;20711;-87
2022/07/23 11:03:24;;;;;;;8.93;8.03;;;27.30;99.90;;;;;;5038381;28;20543;-87
2022/07/23 11:05:50;;;;;;;8.90;8.00;;;27.50;99.90;;;;;;5031911;28;20539;-86
2022/07/23 11:08:19;;;;;;;10.50;7.97;;;27.80;99.90;;;;;;5044301;28;20532;-87
2022/07/23 11:10:55;;;;;;;9.57;8.67;;;27.90;99.90;;;;;;5042690;28;20852;-87
2022/07/23 11:13:36;;;;;;;9.40;8.50;;;27.90;99.90;;;;;;5035474;28;21363;-87
2022/07/23 11:16:04;;;;;;;9.50;7.67;;;28.20;99.90;;;;;;5038995;28;20425;-90
2022/07/23 11:18:42;;;;;;;10.17;8.57;;;28.70;99.90;;;;;;5042349;28;20448;-87
2022/07/23 11:21:23;;;;;;;10.00;9.00;;;29.10;99.90;;;;;;5031273;28;20448;-89
2022/07/23 11:24:14;;;;;;;9.37;8.47;;;31.70;99.90;;;;;;5042829;28;20504;-87
2022/07/23 11:26:41;;;;;;;8.80;7.90;;;29.10;99.70;;;;;;5031921;28;20606;-89
2022/07/23 11:29:25;;;;;;;11.60;7.80;;;28.90;96.50;;;;;;5040564;28;20443;-89
2022/07/23 11:31:57;;;;;;;8.07;7.27;;;28.90;98.20;;;;;;5041043;28;20452;-86
2022/07/23 11:34:38;;;;;;;8.93;8.03;;;28.80;97.20;;;;;;5038386;28;20535;-86
2022/07/23 11:37:06;;;;;;;9.47;8.30;;;28.10;95.60;;;;;;5038986;28;20492;-87
2022/07/23 11:39:33;;;;;;;8.67;7.70;;;27.90;96.70;;;;;;5051131;28;20445;-87
2022/07/23 11:42:00;;;;;;;9.20;8.30;;;27.90;95.40;;;;;;5045802;28;21204;-87
2022/07/23 11:44:35;;;;;;;10.93;9.50;;;27.90;95.20;;;;;;5047251;28;20521;-88
2022/07/23 11:47:03;;;;;;;10.50;9.20;;;28.40;98.90;;;;;;5049998;28;20454;-88
2022/07/23 11:49:29;;;;;;;10.30;9.30;;;28.90;99.00;;;;;;5055110;28;20507;-87
2022/07/23 11:52:15;;;;;;;12.07;10.43;;;29.30;97.90;;;;;;5048680;28;20485;-87
2022/07/23 11:55:08;;;;;;;11.13;9.60;;;28.90;97.50;;;;;;5057890;28;20684;-87
2022/07/23 11:57:37;;;;;;;12.90;10.00;;;28.60;98.10;;;;;;5035437;28;20528;-87
2022/07/23 12:00:06;;;;;;;10.90;9.80;;;28.30;97.20;;;;;;5041422;28;20476;-86
2022/07/23 12:02:32;;;;;;;11.27;10.17;;;28.20;99.90;;;;;;5043368;28;20467;-86
2022/07/23 12:04:58;;;;;;;11.03;9.60;;;26.20;99.30;;;;;;5036127;28;20463;-87
2022/07/23 12:07:35;;;;;;;12.37;10.37;;;28.00;99.90;;;;;;5048816;28;20449;-88
2022/07/23 12:10:16;;;;;;;9.23;8.33;;;27.90;99.90;;;;;;5036921;28;20185;-87
2022/07/23 12:12:49;;;;;;;10.90;9.90;;;27.70;99.50;;;;;;5028658;28;20465;-87
2022/07/23 12:15:16;;;;;;;11.43;10.23;;;27.70;99.70;;;;;;5033940;28;20432;-86
2022/07/23 12:17:44;;;;;;;12.13;10.63;;;27.60;99.90;;;;;;5035255;28;20440;-86
2022/07/23 12:20:15;;;;;;;10.33;9.33;;;27.90;99.90;;;;;;5027226;28;20534;-89
2022/07/23 12:22:47;;;;;;;11.30;9.50;;;28.20;98.70;;;;;;5024974;28;20466;-85
2022/07/23 12:25:20;;;;;;;11.13;10.03;;;28.20;99.00;;;;;;5029223;28;20470;-86
2022/07/23 12:27:57;;;;;;;13.63;11.83;;;28.30;99.60;;;;;;5017784;28;20458;-84
2022/07/23 12:30:26;;;;;;;10.43;9.27;;;28.40;99.20;;;;;;5026434;28;20435;-85
2022/07/23 12:32:54;;;;;;;12.50;9.53;;;28.00;98.80;;;;;;5029016;28;20462;-87
2022/07/23 12:35:21;;;;;;;10.90;9.50;;;28.10;99.30;;;;;;5042807;28;20504;-85
2022/07/23 12:37:48;;;;;;;12.37;9.30;;;28.60;97.20;;;;;;5033788;28;20525;-87
2022/07/23 12:40:41;;;;;;;9.77;8.33;;;28.60;97.40;;;;;;5033129;28;20954;-90
2022/07/23 12:43:11;;;;;;;11.37;9.07;;;28.10;95.90;;;;;;5027313;28;20436;-85
2022/07/23 12:45:49;;;;;;;8.47;7.77;;;28.20;96.50;;;;;;5024674;28;20454;-85
2022/07/23 12:48:19;;;;;;;10.80;9.07;;;28.40;96.10;;;;;;5029412;28;20448;-86
2022/07/23 12:50:53;;;;;;;9.37;8.30;;;28.40;94.90;;;;;;5071497;22;20988;-90
2022/07/23 12:53:36;;;;;;;10.20;7.80;;;28.60;95.70;;;;;;5008193;28;20495;-89
2022/07/23 12:56:21;;;;;;;10.20;9.20;;;28.60;93.20;;;;;;5004499;28;20544;-90
2022/07/23 12:59:01;;;;;;;10.53;8.37;;;28.40;94.90;;;;;;5004954;28;21231;-88
2022/07/23 13:01:30;;;;;;;9.87;8.87;;;28.50;95.50;;;;;;5004721;28;20460;-87
2022/07/23 13:04:06;;;;;;;9.20;8.30;;;28.40;95.00;;;;;;4992974;28;20473;-88
2022/07/23 13:06:43;;;;;;;12.77;8.53;;;28.50;95.20;;;;;;4987593;28;20448;-89
2022/07/23 13:09:12;;;;;;;12.43;9.23;;;28.30;95.10;;;;;;5006227;28;21015;-87
2022/07/23 13:11:38;;;;;;;11.77;9.07;;;28.60;95.70;;;;;;4994857;28;20485;-90
2022/07/23 13:14:05;;;;;;;12.30;8.30;;;;;;;;;;4992478;28;20507;-89